Time;durP1;ratioP1;P1;durP2;ratioP2;P2;SDS_P1;SDS_P2;PMS_P1;PMS_P2;Temp;Humidity;BMP_temperature;BMP_pressure;BME280_temperature;BME280_humidity;BME280_pressure;Samples;Min_cycle;Max_cycle;Signal;HPM_P1;HPM_P2
2022/06/05 00:00:28;;;;;;;12.33;11.13;;;24.00;53.50;;;;;;5068525;28;20455;-88
2022/06/05 00:03:08;;;;;;;10.90;9.80;;;23.90;53.60;;;;;;5055125;28;20456;-89
2022/06/05 00:05:45;;;;;;;11.67;10.43;;;23.90;53.50;;;;;;5072113;28;20436;-88
2022/06/05 00:08:18;;;;;;;11.00;10.00;;;23.70;53.50;;;;;;5051895;28;20939;-89
2022/06/05 00:10:53;;;;;;;10.17;9.17;;;23.70;53.50;;;;;;5069502;28;20464;-89
2022/06/05 00:13:29;;;;;;;11.00;10.03;;;23.60;53.60;;;;;;5054762;28;20520;-89
2022/06/05 00:15:56;;;;;;;11.70;10.53;;;23.70;54.30;;;;;;5055998;28;20462;-89
2022/06/05 00:18:25;;;;;;;12.40;11.13;;;23.70;54.20;;;;;;5093692;28;20481;-89
2022/06/05 00:20:53;;;;;;;12.10;10.83;;;23.70;54.00;;;;;;5091895;28;20997;-92
2022/06/05 00:23:20;;;;;;;11.53;10.37;;;23.70;54.00;;;;;;5071004;28;21024;-89
2022/06/05 00:25:54;;;;;;;12.47;11.27;;;23.70;54.20;;;;;;5070820;28;21542;-89
2022/06/05 00:28:30;;;;;;;11.07;10.07;;;23.70;54.40;;;;;;5069422;28;20535;-91
2022/06/05 00:31:06;;;;;;;14.70;11.97;;;23.70;54.60;;;;;;5054229;28;20475;-90
2022/06/05 00:33:37;;;;;;;11.40;10.30;;;23.70;54.50;;;;;;5068330;28;20443;-89
2022/06/05 00:36:18;;;;;;;10.80;9.80;;;23.70;54.30;;;;;;5050045;28;20447;-90
2022/06/05 00:39:00;;;;;;;11.73;10.60;;;23.70;54.50;;;;;;5049057;28;20547;-89
2022/06/05 00:41:48;;;;;;;11.67;10.60;;;23.60;53.70;;;;;;5090720;28;20979;-90
2022/06/05 00:44:20;;;;;;;10.70;9.70;;;23.50;53.70;;;;;;5068169;28;20471;-88
2022/06/05 00:46:50;;;;;;;11.53;10.43;;;23.40;54.10;;;;;;5087356;28;20440;-89
2022/06/05 00:49:20;;;;;;;11.53;10.33;;;23.40;54.30;;;;;;5044416;28;20570;-93
2022/06/05 00:51:47;;;;;;;11.13;10.10;;;23.40;54.00;;;;;;5041389;28;20467;-91
2022/06/05 00:54:14;;;;;;;12.57;11.37;;;23.30;54.20;;;;;;5035262;28;20451;-89
2022/06/05 00:56:41;;;;;;;12.70;11.47;;;23.30;54.70;;;;;;5052563;28;20979;-89
2022/06/05 00:59:12;;;;;;;13.30;12.00;;;23.30;55.00;;;;;;5055812;28;20884;-89
2022/06/05 01:01:41;;;;;;;12.20;10.87;;;23.30;54.90;;;;;;5085584;28;20511;-89
2022/06/05 01:04:09;;;;;;;10.93;9.93;;;23.20;54.50;;;;;;5049053;28;20471;-89
2022/06/05 01:06:38;;;;;;;13.00;11.67;;;23.20;54.70;;;;;;5089886;28;20440;-90
2022/06/05 01:09:06;;;;;;;11.80;10.60;;;23.20;54.60;;;;;;5042037;28;20458;-88
2022/06/05 01:11:46;;;;;;;11.20;10.20;;;23.20;54.60;;;;;;5065658;28;20463;-89
2022/06/05 01:14:19;;;;;;;11.50;10.40;;;23.20;54.40;;;;;;5044140;28;20881;-89
2022/06/05 01:16:54;;;;;;;11.77;10.60;;;23.10;54.40;;;;;;5058748;28;20494;-89
2022/06/05 01:19:42;;;;;;;12.43;11.33;;;23.00;54.50;;;;;;5089700;28;20446;-89
2022/06/05 01:22:37;;;;;;;13.60;12.20;;;23.00;54.80;;;;;;5040888;28;21001;-90
2022/06/05 01:25:36;;;;;;;12.03;10.87;;;23.00;55.00;;;;;;5074384;28;20529;-89
2022/06/05 01:28:14;;;;;;;13.80;12.50;;;23.00;54.90;;;;;;5045251;28;20444;-91
2022/06/05 01:30:49;;;;;;;14.80;12.50;;;22.90;55.00;;;;;;5054901;28;21185;-89
2022/06/05 01:33:21;;;;;;;14.67;12.73;;;22.90;55.10;;;;;;5085909;28;20451;-89
2022/06/05 01:35:57;;;;;;;12.93;11.83;;;22.90;55.30;;;;;;5053448;28;21313;-89
2022/06/05 01:38:29;;;;;;;11.90;10.90;;;22.80;55.50;;;;;;5053207;28;20451;-89
2022/06/05 01:41:01;;;;;;;14.07;12.57;;;22.80;55.40;;;;;;5055830;28;21291;-89
2022/06/05 01:43:35;;;;;;;12.80;11.60;;;22.80;55.60;;;;;;5070223;28;20459;-88
2022/06/05 01:46:06;;;;;;;12.53;11.33;;;22.80;55.60;;;;;;5056820;28;20451;-89
2022/06/05 01:48:37;;;;;;;13.13;11.90;;;22.80;55.70;;;;;;5059069;28;20504;-89
2022/06/05 01:51:07;;;;;;;13.10;11.80;;;22.80;56.00;;;;;;5072917;28;20478;-91
2022/06/05 01:53:39;;;;;;;12.00;10.90;;;22.70;55.70;;;;;;5075016;28;20814;-89
2022/06/05 01:56:15;;;;;;;12.03;10.90;;;22.70;55.20;;;;;;5067416;28;20669;-89
2022/06/05 01:58:46;;;;;;;11.63;10.60;;;22.50;55.80;;;;;;5074814;28;20810;-88
2022/06/05 02:01:16;;;;;;;11.97;10.87;;;22.50;56.00;;;;;;5072188;28;20460;-88
2022/06/05 02:03:47;;;;;;;14.17;11.47;;;22.50;55.90;;;;;;5065042;28;20567;-89
2022/06/05 02:06:18;;;;;;;11.07;10.03;;;22.20;56.20;;;;;;5069808;28;20850;-91
2022/06/05 02:08:51;;;;;;;12.10;10.90;;;22.20;56.20;;;;;;5040656;28;21269;-90
2022/06/05 02:11:21;;;;;;;11.80;10.60;;;22.30;56.00;;;;;;5036792;28;20472;-89
2022/06/05 02:13:50;;;;;;;14.47;12.23;;;22.30;56.00;;;;;;5073191;28;20450;-91
2022/06/05 02:16:17;;;;;;;11.73;10.63;;;22.30;56.00;;;;;;5070755;28;20489;-89
2022/06/05 02:18:44;;;;;;;12.77;11.57;;;22.40;56.00;;;;;;5073235;28;20821;-89
2022/06/05 02:21:11;;;;;;;11.53;10.43;;;22.40;55.90;;;;;;5036170;28;20471;-91
2022/06/05 02:23:40;;;;;;;11.57;10.47;;;22.40;55.40;;;;;;5056367;28;20465;-89
2022/06/05 02:26:09;;;;;;;14.23;10.80;;;22.40;55.10;;;;;;5091669;28;20552;-93
2022/06/05 02:28:39;;;;;;;12.30;11.10;;;22.20;56.00;;;;;;5061054;28;21466;-88
2022/06/05 02:31:14;;;;;;;11.20;10.10;;;22.00;56.60;;;;;;5041734;28;20471;-90
2022/06/05 02:33:48;;;;;;;13.20;11.90;;;22.00;56.00;;;;;;5060951;28;20979;-89
2022/06/05 02:36:26;;;;;;;12.00;10.90;;;22.00;55.80;;;;;;5071217;28;20479;-91
2022/06/05 02:39:11;;;;;;;13.63;12.23;;;22.00;55.60;;;;;;5054081;28;20443;-91
2022/06/05 02:41:43;;;;;;;14.87;13.00;;;22.00;55.90;;;;;;5093045;28;20487;-90
2022/06/05 02:44:30;;;;;;;14.50;12.10;;;22.00;55.60;;;;;;5054495;28;20547;-91
2022/06/05 02:47:10;;;;;;;12.90;11.70;;;21.90;56.30;;;;;;5051770;28;20459;-89
2022/06/05 02:49:42;;;;;;;13.30;11.27;;;21.90;56.70;;;;;;5075538;28;20526;-90
2022/06/05 02:52:10;;;;;;;12.93;11.63;;;22.00;56.80;;;;;;5053922;28;20478;-91
2022/06/05 02:54:41;;;;;;;13.50;12.20;;;22.10;56.60;;;;;;5057406;28;20847;-89
2022/06/05 02:57:09;;;;;;;17.33;12.53;;;21.70;57.30;;;;;;5089214;28;20522;-89
2022/06/05 02:59:37;;;;;;;13.10;11.90;;;21.60;57.50;;;;;;5068859;28;20536;-89
2022/06/05 03:04:49;;;;;;;13.50;12.07;;;21.80;56.90;;;;;;5046295;28;20467;-92
2022/06/05 03:07:16;;;;;;;12.90;11.70;;;21.20;58.10;;;;;;5038635;28;20459;-88
2022/06/05 03:09:44;;;;;;;12.87;11.67;;;21.20;57.90;;;;;;5056316;28;20444;-93
2022/06/05 03:12:11;;;;;;;11.30;10.20;;;21.20;58.00;;;;;;5089216;28;20517;-89
2022/06/05 03:14:40;;;;;;;12.70;11.40;;;21.40;57.50;;;;;;5035043;28;21057;-89
2022/06/05 03:17:06;;;;;;;11.10;10.10;;;21.50;57.00;;;;;;5090256;28;20443;-93
2022/06/05 03:19:33;;;;;;;13.10;11.80;;;21.60;56.80;;;;;;5086002;28;20447;-89
2022/06/05 03:22:01;;;;;;;12.30;11.20;;;21.70;56.60;;;;;;5035791;28;21163;-89
2022/06/05 03:24:27;;;;;;;11.57;10.47;;;21.80;56.70;;;;;;5037254;28;20841;-92
2022/06/05 03:26:54;;;;;;;13.50;12.20;;;21.80;56.50;;;;;;5037788;28;20535;-90
2022/06/05 03:29:21;;;;;;;14.07;11.77;;;21.90;56.30;;;;;;5053211;28;20475;-88
2022/06/05 03:31:50;;;;;;;14.43;11.30;;;21.90;56.40;;;;;;5070634;28;20540;-89
2022/06/05 03:34:17;;;;;;;12.40;11.20;;;21.80;56.60;;;;;;5088244;28;20454;-89
2022/06/05 03:36:46;;;;;;;12.70;11.27;;;21.90;56.30;;;;;;5054078;28;20444;-89
2022/06/05 03:39:13;;;;;;;15.07;11.43;;;21.90;56.10;;;;;;5069429;28;20443;-90
2022/06/05 03:41:40;;;;;;;13.53;12.13;;;21.90;56.30;;;;;;5091666;28;20525;-89
2022/06/05 03:44:07;;;;;;;12.73;11.40;;;21.90;56.00;;;;;;5033560;28;20472;-92
2022/06/05 03:46:38;;;;;;;13.03;11.80;;;21.90;56.50;;;;;;5039009;28;20452;-90
2022/06/05 03:49:06;;;;;;;13.40;11.97;;;22.00;56.70;;;;;;5067770;28;20446;-91
2022/06/05 03:51:34;;;;;;;12.43;11.13;;;22.00;56.70;;;;;;5073619;28;20460;-88
2022/06/05 03:54:01;;;;;;;13.13;11.50;;;22.10;56.70;;;;;;5068068;28;20447;-88
2022/06/05 03:56:29;;;;;;;13.03;11.67;;;22.00;56.80;;;;;;5070661;28;20451;-90
2022/06/05 03:58:58;;;;;;;13.20;11.93;;;21.70;57.60;;;;;;5053510;28;20458;-89
2022/06/05 04:01:27;;;;;;;14.33;12.03;;;21.70;58.20;;;;;;5086736;28;20463;-90
2022/06/05 04:03:55;;;;;;;16.93;12.27;;;21.80;58.00;;;;;;5068960;28;20468;-92
2022/06/05 04:06:27;;;;;;;12.73;11.43;;;21.90;57.90;;;;;;5051864;28;20463;-93
2022/06/05 04:08:55;;;;;;;13.80;11.90;;;22.00;57.80;;;;;;5070537;28;20456;-91
2022/06/05 04:11:23;;;;;;;13.83;12.33;;;22.10;57.70;;;;;;5053375;28;20511;-91
2022/06/05 04:13:50;;;;;;;13.13;11.80;;;22.20;57.80;;;;;;5042573;28;20492;-89
2022/06/05 04:16:20;;;;;;;12.67;11.60;;;22.20;57.40;;;;;;5088618;28;20548;-89
2022/06/05 04:18:48;;;;;;;13.60;12.20;;;22.20;57.60;;;;;;5038084;28;20443;-91
2022/06/05 04:21:17;;;;;;;17.37;13.57;;;22.20;57.60;;;;;;5083805;28;20500;-91
2022/06/05 04:23:45;;;;;;;12.90;11.60;;;22.20;57.60;;;;;;5092127;28;20853;-90
2022/06/05 04:26:15;;;;;;;14.03;12.63;;;22.20;57.60;;;;;;5049145;28;20447;-88
2022/06/05 04:28:43;;;;;;;12.63;11.30;;;22.20;57.70;;;;;;5090604;28;20455;-89
2022/06/05 04:31:18;;;;;;;14.50;12.87;;;21.80;58.00;;;;;;5087133;28;20986;-91
2022/06/05 04:33:45;;;;;;;18.10;13.40;;;21.70;58.40;;;;;;5064471;28;20860;-90
2022/06/05 04:36:13;;;;;;;14.97;13.57;;;21.70;58.70;;;;;;5029979;28;20500;-89
2022/06/05 04:38:40;;;;;;;14.37;12.77;;;21.90;58.90;;;;;;5057085;28;20490;-89
2022/06/05 04:41:08;;;;;;;14.67;13.17;;;22.00;58.80;;;;;;5067958;28;20459;-88
2022/06/05 04:43:36;;;;;;;13.23;11.83;;;21.90;59.00;;;;;;5042730;28;20501;-92
2022/06/05 04:46:03;;;;;;;13.90;12.60;;;21.10;60.70;;;;;;5073043;28;20456;-89
2022/06/05 04:48:30;;;;;;;13.20;11.93;;;21.10;61.40;;;;;;5054035;28;20474;-91
2022/06/05 04:50:57;;;;;;;13.20;12.00;;;21.10;60.90;;;;;;5038071;28;20547;-89
2022/06/05 04:53:24;;;;;;;15.10;13.60;;;20.80;62.70;;;;;;5085813;28;20490;-89
2022/06/05 04:55:51;;;;;;;14.50;13.10;;;20.90;63.00;;;;;;5054276;28;20462;-89
2022/06/05 04:58:20;;;;;;;14.90;13.40;;;21.20;62.40;;;;;;5069761;28;20455;-91
2022/06/05 05:00:47;;;;;;;16.23;14.53;;;21.40;61.70;;;;;;5052724;28;20502;-90
2022/06/05 05:03:14;;;;;;;18.93;14.40;;;21.60;61.20;;;;;;5058853;28;21008;-89
2022/06/05 05:05:42;;;;;;;15.97;14.17;;;21.70;61.20;;;;;;5087406;28;20463;-90
2022/06/05 05:08:09;;;;;;;24.60;14.73;;;21.90;60.60;;;;;;5074073;28;20432;-90
2022/06/05 05:10:36;;;;;;;13.40;12.10;;;21.80;60.60;;;;;;5064351;28;20447;-88
2022/06/05 05:13:04;;;;;;;18.33;13.77;;;21.50;61.20;;;;;;5053372;28;20447;-88
2022/06/05 05:15:32;;;;;;;17.87;13.70;;;21.60;61.40;;;;;;5057211;28;20467;-90
2022/06/05 05:17:59;;;;;;;14.70;13.20;;;21.60;61.60;;;;;;5048513;28;20423;-89
2022/06/05 05:20:27;;;;;;;14.40;13.10;;;21.60;61.60;;;;;;5075149;28;20450;-89
2022/06/05 05:22:54;;;;;;;14.87;13.47;;;21.60;61.50;;;;;;5093031;28;20447;-89
2022/06/05 05:25:22;;;;;;;17.40;12.73;;;21.40;61.80;;;;;;5090372;28;20563;-89
2022/06/05 05:27:49;;;;;;;14.37;12.87;;;21.40;61.60;;;;;;5075565;28;20977;-90
2022/06/05 05:30:16;;;;;;;15.63;13.00;;;21.30;61.90;;;;;;5056884;28;20471;-90
2022/06/05 05:32:44;;;;;;;14.10;12.60;;;21.20;62.30;;;;;;5059883;28;20837;-89
2022/06/05 05:35:11;;;;;;;14.60;13.20;;;21.40;62.20;;;;;;5072617;28;20439;-92
2022/06/05 05:37:38;;;;;;;12.90;11.70;;;21.40;61.70;;;;;;5059729;28;20455;-88
2022/06/05 05:42:51;;;;;;;14.73;13.20;;;21.90;61.10;;;;;;5073132;28;20593;-89
2022/06/05 05:45:18;;;;;;;14.80;13.20;;;22.10;60.80;;;;;;5055681;28;20514;-89
2022/06/05 05:47:47;;;;;;;14.50;13.17;;;22.10;60.90;;;;;;5076647;28;21137;-89
2022/06/05 05:50:16;;;;;;;16.50;14.80;;;22.00;60.40;;;;;;5072648;28;20509;-89
2022/06/05 05:52:44;;;;;;;16.80;14.60;;;22.00;60.60;;;;;;5055250;28;20534;-89
2022/06/05 05:55:13;;;;;;;14.53;12.93;;;22.00;60.10;;;;;;5083055;28;20443;-93
2022/06/05 05:57:40;;;;;;;16.57;13.13;;;22.20;60.10;;;;;;5058463;28;20456;-90
2022/06/05 06:00:10;;;;;;;14.87;13.40;;;22.30;59.90;;;;;;5057522;28;20459;-88
2022/06/05 06:02:38;;;;;;;14.93;13.43;;;22.30;59.70;;;;;;5036676;28;20476;-89
2022/06/05 06:05:08;;;;;;;14.63;13.23;;;22.50;59.60;;;;;;5055146;28;20463;-90
2022/06/05 06:07:35;;;;;;;15.13;13.53;;;22.60;59.00;;;;;;5090820;28;20448;-90
2022/06/05 06:10:02;;;;;;;14.03;12.70;;;22.70;58.90;;;;;;5058443;28;20859;-89
2022/06/05 06:12:29;;;;;;;17.47;13.97;;;22.80;59.10;;;;;;5058103;28;20468;-92
2022/06/05 06:14:56;;;;;;;15.20;13.70;;;22.80;58.90;;;;;;5063223;28;20574;-89
2022/06/05 06:17:23;;;;;;;14.57;13.10;;;22.90;59.00;;;;;;5051160;28;20509;-87
2022/06/05 06:19:50;;;;;;;15.30;13.20;;;23.00;58.90;;;;;;5072287;28;20439;-89
2022/06/05 06:22:19;;;;;;;14.30;13.00;;;23.00;58.20;;;;;;5071726;28;20545;-90
2022/06/05 06:24:46;;;;;;;14.43;13.03;;;22.90;58.10;;;;;;5057671;28;20476;-90
2022/06/05 06:27:13;;;;;;;14.40;12.97;;;22.70;58.30;;;;;;5071056;28;20483;-90
2022/06/05 06:29:40;;;;;;;16.47;14.17;;;22.70;58.70;;;;;;5035827;28;21299;-93
2022/06/05 06:32:08;;;;;;;16.13;14.53;;;22.80;58.90;;;;;;5091168;28;20543;-91
2022/06/05 06:34:35;;;;;;;15.40;13.90;;;22.90;59.10;;;;;;5058205;28;20455;-86
2022/06/05 06:37:03;;;;;;;15.40;13.90;;;22.90;59.10;;;;;;5054486;28;20970;-89
2022/06/05 06:39:31;;;;;;;19.37;14.70;;;23.00;59.50;;;;;;5070480;28;20456;-89
2022/06/05 06:41:58;;;;;;;14.20;12.90;;;23.00;59.30;;;;;;5071460;28;20497;-88
2022/06/05 06:44:26;;;;;;;16.10;13.90;;;23.00;59.50;;;;;;5033678;28;20459;-88
2022/06/05 06:46:53;;;;;;;15.83;14.13;;;23.10;59.90;;;;;;5075123;28;20529;-87
2022/06/05 06:49:20;;;;;;;17.77;15.23;;;23.10;59.70;;;;;;5052353;28;20450;-89
2022/06/05 06:51:48;;;;;;;16.00;14.30;;;23.00;59.90;;;;;;5036414;28;20558;-91
2022/06/05 06:54:15;;;;;;;18.50;16.50;;;22.90;60.80;;;;;;5053775;28;21160;-89
2022/06/05 06:56:44;;;;;;;17.33;14.47;;;22.70;60.90;;;;;;5054438;28;20444;-90
2022/06/05 06:59:12;;;;;;;17.80;16.10;;;22.50;62.20;;;;;;5055883;28;20462;-92
2022/06/05 07:07:40;;;;;;;18.97;17.07;;;22.20;63.60;;;;;;5408045;22;20860;-91
2022/06/05 07:10:09;;;;;;;19.53;17.50;;;22.30;62.10;;;;;;4953969;28;20467;-95
2022/06/05 07:13:00;;;;;;;18.93;16.90;;;22.30;62.70;;;;;;4972790;28;20496;-91
2022/06/05 07:15:56;;;;;;;18.47;16.33;;;22.50;62.60;;;;;;4960561;28;20488;-94
2022/06/05 07:18:58;;;;;;;19.43;17.10;;;22.60;61.70;;;;;;4969119;28;20445;-92
2022/06/05 07:21:27;;;;;;;20.93;17.33;;;22.50;62.40;;;;;;4964271;28;20472;-92
2022/06/05 07:24:01;;;;;;;20.73;17.67;;;22.50;62.90;;;;;;4986105;28;20535;-92
2022/06/05 07:26:33;;;;;;;18.87;16.87;;;22.50;62.60;;;;;;4986021;28;20469;-92
2022/06/05 07:29:23;;;;;;;18.70;16.70;;;22.50;62.20;;;;;;4957396;28;20454;-94
2022/06/05 07:31:50;;;;;;;18.80;16.90;;;22.60;62.00;;;;;;4950313;28;20930;-93
2022/06/05 07:34:17;;;;;;;19.60;17.50;;;22.60;62.20;;;;;;4946976;28;20462;-95
2022/06/05 07:40:20;;;;;;;19.47;16.50;;;22.80;62.00;;;;;;4984045;28;20427;-91
2022/06/05 07:47:02;;;;;;;21.30;18.00;;;22.60;62.60;;;;;;5620224;22;20480;31
2022/06/05 07:49:30;;;;;;;19.50;17.40;;;22.40;62.90;;;;;;4963045;28;20549;-94
2022/06/05 07:54:52;;;;;;;18.00;16.10;;;22.50;63.10;;;;;;4980225;28;20469;-92
2022/06/05 07:57:19;;;;;;;24.00;17.23;;;22.30;63.80;;;;;;4946719;28;21142;-94
2022/06/05 07:59:48;;;;;;;22.00;17.13;;;22.20;63.60;;;;;;4950147;29;20449;-93
2022/06/05 08:02:19;;;;;;;20.23;18.10;;;22.10;64.70;;;;;;4956788;28;20470;-95
2022/06/05 08:04:49;;;;;;;18.80;16.80;;;22.40;64.40;;;;;;5004802;28;20476;-92
2022/06/05 08:07:19;;;;;;;19.00;15.87;;;22.30;63.60;;;;;;4951977;28;20460;-92
2022/06/05 08:09:47;;;;;;;20.80;18.20;;;22.40;63.60;;;;;;4955525;28;21145;-92
2022/06/05 08:12:17;;;;;;;20.50;18.30;;;22.60;63.50;;;;;;4973745;28;20500;-93
2022/06/05 08:14:47;;;;;;;21.97;19.73;;;22.70;63.90;;;;;;4967135;28;20532;-94
2022/06/05 08:17:19;;;;;;;28.30;19.00;;;22.70;63.50;;;;;;4948611;28;20483;-93
2022/06/05 08:19:49;;;;;;;21.10;17.40;;;22.70;63.00;;;;;;4945290;29;20449;-94
2022/06/05 08:22:21;;;;;;;23.43;18.20;;;22.80;62.60;;;;;;4963755;28;20509;-93
2022/06/05 08:25:16;;;;;;;18.80;16.70;;;22.90;62.60;;;;;;4951547;28;20504;-92
2022/06/05 08:27:48;;;;;;;18.93;16.87;;;22.70;62.90;;;;;;4974564;28;20477;-96
2022/06/05 08:30:15;;;;;;;18.57;16.57;;;22.60;64.00;;;;;;4957085;28;21071;-96
2022/06/05 08:35:21;;;;;;;20.97;18.73;;;22.30;64.20;;;;;;4974549;28;20476;-95
2022/06/05 09:08:55;;;;;;;18.57;16.63;;;22.90;63.80;;;;;;5012019;28;20463;-93
2022/06/05 09:24:46;;;;;;;18.27;16.07;;;23.10;63.00;;;;;;5031151;28;20459;-94
2022/06/05 09:27:26;;;;;;;17.07;15.37;;;23.20;63.40;;;;;;4973605;28;20479;-94
2022/06/05 09:30:00;;;;;;;17.50;15.70;;;23.30;63.50;;;;;;4994440;28;20443;-94
2022/06/05 09:36:36;;;;;;;19.17;17.10;;;23.30;62.90;;;;;;5002642;28;20438;-94
2022/06/05 09:39:13;;;;;;;20.03;16.73;;;23.50;63.30;;;;;;4996067;28;20448;-93
2022/06/05 09:46:31;;;;;;;17.60;15.80;;;23.60;63.20;;;;;;4944715;28;20492;-93
2022/06/05 09:49:04;;;;;;;17.90;16.10;;;23.60;62.80;;;;;;4974588;28;20451;-91
2022/06/05 09:51:31;;;;;;;19.50;16.83;;;23.50;63.10;;;;;;4985223;28;20479;-93
2022/06/05 09:54:06;;;;;;;19.90;15.80;;;23.70;63.50;;;;;;4971389;28;20534;-91
2022/06/05 09:59:33;;;;;;;18.00;15.83;;;23.70;63.70;;;;;;4963080;28;20444;-93
2022/06/05 10:02:03;;;;;;;20.47;16.50;;;23.70;63.60;;;;;;4948889;28;20566;-94
2022/06/05 10:04:32;;;;;;;18.73;16.73;;;23.70;63.50;;;;;;4971879;28;20487;-94
2022/06/05 10:07:09;;;;;;;17.87;15.10;;;23.50;64.30;;;;;;4971938;28;20488;-94
2022/06/05 10:09:44;;;;;;;17.80;15.67;;;23.40;65.00;;;;;;4960509;28;20650;-93
2022/06/05 10:12:21;;;;;;;19.10;15.37;;;23.50;64.80;;;;;;4975830;28;20482;-94
2022/06/05 10:14:53;;;;;;;18.87;15.77;;;23.40;64.80;;;;;;4985897;28;20447;-91
2022/06/05 10:17:45;;;;;;;18.40;15.90;;;23.20;64.60;;;;;;4969242;28;20509;-94
2022/06/05 10:20:39;;;;;;;19.43;15.27;;;23.10;66.10;;;;;;4996154;28;20456;-93
2022/06/05 10:23:17;;;;;;;23.87;16.10;;;23.30;65.70;;;;;;5015187;28;20486;-93
2022/06/05 10:29:23;;;;;;;18.83;15.77;;;23.80;65.40;;;;;;5007242;28;20492;-94
2022/06/05 10:48:22;;;;;;;16.20;14.50;;;24.30;62.80;;;;;;5278619;23;20478;-94
2022/06/05 10:50:59;;;;;;;16.80;14.47;;;24.30;62.90;;;;;;4908023;29;20495;-95
2022/06/05 10:53:36;;;;;;;18.83;14.90;;;24.50;63.50;;;;;;4916356;29;20436;-94
2022/06/05 10:56:26;;;;;;;17.20;14.07;;;24.60;63.40;;;;;;4903233;29;20433;-94
2022/06/05 10:59:00;;;;;;;17.00;14.07;;;24.80;63.10;;;;;;4889123;28;20440;-95
2022/06/05 11:02:05;;;;;;;15.80;14.13;;;25.00;62.50;;;;;;4891480;29;20520;-95
2022/06/05 11:04:50;;;;;;;18.07;13.93;;;25.20;62.60;;;;;;4906320;29;20457;-95
2022/06/05 11:14:25;;;;;;;12.40;11.10;;;25.80;60.90;;;;;;4885815;29;20523;-92
2022/06/05 11:17:01;;;;;;;11.47;10.37;;;25.70;59.30;;;;;;4898710;29;20518;-92
2022/06/05 11:19:38;;;;;;;13.00;10.47;;;25.80;58.50;;;;;;4891088;29;20448;-93
2022/06/05 11:22:12;;;;;;;11.30;10.10;;;25.80;59.20;;;;;;4881823;29;20487;-93
2022/06/05 11:24:50;;;;;;;10.70;9.70;;;25.80;58.30;;;;;;4889130;29;20678;-93
2022/06/05 11:27:29;;;;;;;9.97;9.00;;;25.80;58.80;;;;;;4898664;29;20452;-94
2022/06/05 11:30:06;;;;;;;11.37;10.23;;;25.80;57.50;;;;;;4891772;29;20456;-94
2022/06/05 11:32:46;;;;;;;11.73;9.13;;;25.70;57.60;;;;;;4893904;29;20471;-94
2022/06/05 11:35:24;;;;;;;9.83;8.83;;;25.90;58.30;;;;;;4912987;29;20479;-94
2022/06/05 11:37:59;;;;;;;9.43;8.53;;;26.00;57.80;;;;;;4912795;29;20482;-94
2022/06/05 11:40:54;;;;;;;11.50;8.03;;;26.20;56.60;;;;;;4901455;29;20473;-94
2022/06/05 11:43:32;;;;;;;12.63;8.57;;;26.30;56.90;;;;;;4892670;28;20446;-95
2022/06/05 11:46:12;;;;;;;9.00;8.10;;;26.50;56.40;;;;;;4909591;28;20511;-93
2022/06/05 11:48:43;;;;;;;8.97;8.17;;;26.50;56.70;;;;;;4912498;28;20476;-95
2022/06/05 11:51:21;;;;;;;9.97;9.00;;;26.20;56.10;;;;;;4912698;29;20499;-94
2022/06/05 11:54:01;;;;;;;10.10;9.17;;;26.20;55.70;;;;;;4907438;28;20445;-94
2022/06/05 11:56:51;;;;;;;9.10;8.20;;;26.20;57.30;;;;;;4896774;29;20445;-94
2022/06/05 11:59:29;;;;;;;9.57;8.60;;;26.50;57.40;;;;;;4902074;28;20440;-94
2022/06/05 12:02:02;;;;;;;16.50;11.53;;;26.70;55.80;;;;;;4889615;29;20475;-95
2022/06/05 12:04:49;;;;;;;13.57;11.47;;;26.50;56.80;;;;;;4877466;29;20461;-95
2022/06/05 12:07:18;;;;;;;14.93;9.80;;;26.50;56.80;;;;;;4887617;29;20480;-93
2022/06/05 12:09:49;;;;;;;9.57;8.67;;;26.60;56.80;;;;;;4896979;29;20461;-96
2022/06/05 12:12:22;;;;;;;9.40;8.60;;;26.70;56.90;;;;;;4886716;29;20479;-95
2022/06/05 12:14:57;;;;;;;9.83;8.83;;;26.80;56.10;;;;;;4890546;29;20448;-94
2022/06/05 12:17:32;;;;;;;9.40;8.50;;;27.00;55.80;;;;;;4879318;29;20478;-93
2022/06/05 12:20:06;;;;;;;10.63;8.97;;;27.10;54.40;;;;;;4881312;29;20445;-91
2022/06/05 12:22:41;;;;;;;9.73;8.10;;;27.10;55.40;;;;;;4868307;29;20530;-93
2022/06/05 12:25:22;;;;;;;8.60;7.80;;;27.10;54.60;;;;;;4853680;29;20455;-94
2022/06/05 12:27:58;;;;;;;8.37;7.67;;;26.90;55.00;;;;;;4877963;29;20563;-93
2022/06/05 12:30:31;;;;;;;9.70;7.30;;;26.80;56.50;;;;;;4881811;29;20460;-93
2022/06/05 12:33:03;;;;;;;8.07;7.37;;;27.00;57.10;;;;;;4880470;29;20871;-91
2022/06/05 12:35:34;;;;;;;11.77;7.50;;;27.00;57.90;;;;;;4858883;29;20551;-92
2022/06/05 12:38:16;;;;;;;7.57;6.87;;;27.30;57.20;;;;;;4896831;29;20452;-91
2022/06/05 12:40:52;;;;;;;8.07;7.27;;;27.10;55.10;;;;;;4848421;29;20718;-92
2022/06/05 12:43:26;;;;;;;7.67;6.97;;;27.20;57.40;;;;;;4877325;29;20466;-92
2022/06/05 12:45:58;;;;;;;7.83;7.03;;;27.20;56.70;;;;;;4896048;29;20472;-91
2022/06/05 12:48:29;;;;;;;6.20;5.70;;;27.30;57.80;;;;;;4879528;29;20475;-91
2022/06/05 12:51:01;;;;;;;7.17;6.30;;;27.50;57.40;;;;;;4883670;29;20484;-91
2022/06/05 12:53:36;;;;;;;7.10;6.10;;;27.50;57.00;;;;;;4880325;29;20457;-91
2022/06/05 12:56:24;;;;;;;6.47;5.97;;;27.60;56.60;;;;;;4863849;29;20440;-91
2022/06/05 12:58:58;;;;;;;5.53;5.13;;;27.80;56.70;;;;;;4852907;29;20453;-88
2022/06/05 13:01:28;;;;;;;5.17;4.70;;;28.10;57.50;;;;;;4859173;29;20480;-89
2022/06/05 13:04:02;;;;;;;5.63;4.93;;;28.00;56.30;;;;;;4862862;29;20855;-90
2022/06/05 13:06:52;;;;;;;5.00;4.60;;;28.10;56.40;;;;;;4860103;29;20476;-91
2022/06/05 13:09:28;;;;;;;4.63;4.23;;;27.80;55.60;;;;;;4889730;29;20455;-91
2022/06/05 13:12:01;;;;;;;4.57;4.17;;;27.70;56.10;;;;;;4893065;29;20479;-90
2022/06/05 13:14:40;;;;;;;4.83;3.80;;;27.70;55.50;;;;;;4863487;29;20449;-91
2022/06/05 13:17:15;;;;;;;3.93;3.60;;;27.50;55.50;;;;;;4862842;29;20558;-90
2022/06/05 13:19:46;;;;;;;5.10;4.53;;;27.50;55.80;;;;;;4877831;29;20470;-92
2022/06/05 13:22:17;;;;;;;4.90;4.17;;;27.60;56.10;;;;;;4873456;29;20465;-90
2022/06/05 13:24:51;;;;;;;4.50;4.20;;;27.50;56.20;;;;;;4878773;29;20547;-91
2022/06/05 13:27:30;;;;;;;4.53;3.97;;;27.60;56.00;;;;;;4876794;29;20886;-90
2022/06/05 13:30:06;;;;;;;6.90;3.80;;;27.80;55.20;;;;;;4892090;29;20460;-89
2022/06/05 13:32:46;;;;;;;4.33;3.47;;;27.80;55.20;;;;;;4847259;29;20476;-91
2022/06/05 13:35:34;;;;;;;3.93;3.53;;;27.90;55.30;;;;;;4892909;29;20977;-91
2022/06/05 13:38:07;;;;;;;3.60;2.97;;;28.00;54.60;;;;;;4877221;29;20453;-91
2022/06/05 13:40:43;;;;;;;7.40;2.70;;;27.80;53.40;;;;;;4850441;29;20463;-91
2022/06/05 13:43:19;;;;;;;2.87;2.27;;;27.90;53.10;;;;;;4873177;29;20451;-90
2022/06/05 13:46:16;;;;;;;3.00;2.30;;;27.90;51.70;;;;;;4896740;29;20459;-91
2022/06/05 13:48:51;;;;;;;6.30;2.70;;;28.00;51.80;;;;;;4874795;29;20856;-91
2022/06/05 13:51:26;;;;;;;3.40;2.17;;;28.10;51.90;;;;;;4850121;29;21323;-90
2022/06/05 13:54:09;;;;;;;2.77;1.90;;;28.20;52.10;;;;;;4881600;29;20467;-91
2022/06/05 13:56:44;;;;;;;2.20;2.00;;;28.30;52.30;;;;;;4857717;29;20457;-92
2022/06/05 13:59:18;;;;;;;2.03;1.90;;;28.20;51.00;;;;;;4882551;29;20570;-91
2022/06/05 14:02:05;;;;;;;4.10;2.30;;;28.10;50.50;;;;;;4883120;29;20479;-91
2022/06/05 14:04:34;;;;;;;2.30;2.10;;;27.60;51.30;;;;;;4879645;29;20558;-91
2022/06/05 14:07:04;;;;;;;2.67;2.30;;;27.70;52.70;;;;;;4862604;29;20473;-91
2022/06/05 14:09:41;;;;;;;3.77;2.60;;;27.80;53.00;;;;;;4895084;29;20541;-92
2022/06/05 14:12:19;;;;;;;2.80;2.30;;;28.00;53.00;;;;;;4883217;29;20782;-91
2022/06/05 14:14:49;;;;;;;2.50;2.30;;;28.10;52.70;;;;;;4880528;29;20459;-90
2022/06/05 14:17:25;;;;;;;3.23;2.10;;;28.10;52.60;;;;;;4870839;29;20531;-90
2022/06/05 14:19:57;;;;;;;2.37;2.17;;;28.10;52.50;;;;;;4865334;29;20448;-90
2022/06/05 14:22:27;;;;;;;2.50;2.13;;;27.90;52.90;;;;;;4883735;29;21229;-90
2022/06/05 14:24:57;;;;;;;5.03;2.43;;;27.80;52.60;;;;;;4893612;29;20468;-90
2022/06/05 14:27:30;;;;;;;9.07;2.43;;;27.80;52.90;;;;;;4864636;29;20468;-90
2022/06/05 14:30:00;;;;;;;2.37;2.20;;;27.90;53.30;;;;;;4871788;29;20452;-89
2022/06/05 14:32:30;;;;;;;3.83;2.50;;;27.80;51.90;;;;;;4846841;29;20483;-90
2022/06/05 14:35:21;;;;;;;5.50;2.50;;;27.70;53.10;;;;;;4866013;29;20462;-90
2022/06/05 14:37:54;;;;;;;3.10;2.20;;;27.70;52.80;;;;;;4875251;29;21175;-90
2022/06/05 14:40:23;;;;;;;2.90;2.53;;;27.70;53.20;;;;;;4882261;29;20458;-91
2022/06/05 14:42:59;;;;;;;3.30;2.40;;;27.70;53.30;;;;;;4897978;29;20516;-91
2022/06/05 14:45:32;;;;;;;2.20;1.90;;;27.80;52.80;;;;;;4871360;29;20452;-90